createdAt,value
2018-03-26T00:01:30.392Z,67.40
2018-03-26T00:03:58.013Z,67.70
2018-03-26T00:06:25.627Z,67.50
2018-03-26T00:08:53.284Z,68.10
2018-03-26T00:11:20.897Z,68.10
2018-03-26T00:13:48.515Z,67.70
2018-03-26T00:16:16.919Z,68.20
2018-03-26T00:18:44.686Z,68.20
2018-03-26T00:21:12.459Z,68.00
2018-03-26T00:23:40.081Z,67.70
2018-03-26T00:26:08.445Z,68.50
2018-03-26T00:28:36.118Z,68.50
2018-03-26T00:31:03.721Z,69.20
2018-03-26T00:33:31.367Z,68.90
2018-03-26T00:35:59.746Z,68.60
2018-03-26T00:38:28.489Z,68.50
2018-03-26T00:40:56.086Z,68.40
2018-03-26T00:43:23.898Z,68.20
2018-03-26T00:45:51.540Z,69.10
2018-03-26T00:50:53.999Z,69.10
2018-03-26T00:53:33.472Z,68.80
2018-03-26T00:56:01.864Z,68.80
2018-03-26T00:58:30.241Z,69.00
2018-03-26T01:00:58.606Z,69.00
2018-03-26T01:03:26.240Z,69.00
2018-03-26T01:05:53.852Z,68.70
2018-03-26T01:08:22.584Z,68.50
2018-03-26T01:10:50.180Z,68.50
2018-03-26T01:13:18.548Z,68.50
2018-03-26T01:15:46.186Z,68.50
2018-03-26T01:18:13.974Z,68.50
2018-03-26T01:20:41.540Z,69.10
2018-03-26T01:23:12.049Z,69.40
2018-03-26T01:25:39.746Z,69.40
2018-03-26T01:28:07.338Z,69.30
2018-03-26T01:30:34.989Z,69.90
2018-03-26T01:33:02.619Z,70.40
2018-03-26T01:35:30.287Z,70.10
2018-03-26T01:37:57.886Z,70.30
2018-03-26T01:40:25.480Z,70.10
2018-03-26T01:42:53.856Z,69.90
2018-03-26T01:45:21.500Z,69.80
2018-03-26T01:47:49.086Z,70.00
2018-03-26T01:50:16.746Z,70.40
2018-03-26T01:52:45.832Z,71.00
2018-03-26T01:55:13.588Z,71.00
2018-03-26T01:57:41.227Z,71.20
2018-03-26T02:00:08.832Z,70.80
2018-03-26T02:02:36.417Z,70.50
2018-03-26T02:05:04.804Z,70.90
2018-03-26T02:07:32.427Z,70.80
2018-03-26T02:10:00.030Z,71.30
2018-03-26T02:12:27.845Z,71.60
2018-03-26T02:14:55.421Z,71.80
2018-03-26T02:17:23.381Z,72.50
2018-03-26T02:19:50.986Z,72.20
2018-03-26T02:22:18.693Z,72.20
2018-03-26T02:24:47.061Z,73.50
2018-03-26T02:27:14.666Z,73.40
2018-03-26T02:29:42.291Z,74.10
2018-03-26T02:32:09.989Z,74.00
2018-03-26T02:34:37.894Z,73.90
2018-03-26T02:37:05.558Z,73.50
2018-03-26T02:39:33.219Z,73.00
2018-03-26T02:42:00.834Z,73.00
2018-03-26T02:44:29.202Z,72.90
2018-03-26T02:46:57.588Z,72.60
2018-03-26T02:49:25.193Z,72.80
2018-03-26T02:51:52.804Z,72.50
2018-03-26T02:54:20.388Z,72.20
2018-03-26T02:56:48.108Z,71.40
2018-03-26T02:59:15.745Z,71.60
2018-03-26T03:01:44.103Z,72.20
2018-03-26T03:04:11.761Z,72.20
2018-03-26T03:06:39.362Z,71.70
2018-03-26T03:09:07.772Z,71.90
2018-03-26T03:11:35.482Z,71.90
2018-03-26T03:14:03.817Z,71.70
2018-03-26T03:16:31.446Z,71.70
2018-03-26T03:18:59.845Z,72.50
2018-03-26T03:21:28.225Z,72.00
2018-03-26T03:23:56.581Z,72.50
2018-03-26T03:26:24.623Z,72.40
2018-03-26T03:28:52.202Z,73.00
2018-03-26T03:31:19.953Z,73.10
2018-03-26T03:33:47.809Z,73.10
2018-03-26T03:36:15.401Z,72.90
2018-03-26T03:38:43.033Z,72.80
2018-03-26T03:41:11.381Z,72.20
2018-03-26T03:43:39.319Z,72.20
2018-03-26T03:46:06.913Z,71.80
2018-03-26T03:48:34.627Z,71.60
2018-03-26T03:51:02.244Z,71.40
2018-03-26T03:53:29.830Z,71.40
2018-03-26T03:55:58.214Z,71.40
2018-03-26T03:58:26.587Z,71.70
2018-03-26T04:00:54.486Z,71.50
2018-03-26T04:03:22.080Z,72.10
2018-03-26T04:05:49.671Z,71.60
2018-03-26T04:08:17.417Z,71.40
2018-03-26T04:10:45.016Z,71.70
2018-03-26T04:13:14.129Z,71.70
2018-03-26T04:15:41.730Z,71.60
2018-03-26T04:18:09.351Z,71.20
2018-03-26T04:20:37.051Z,71.80
2018-03-26T04:23:04.645Z,71.70
2018-03-26T04:25:32.265Z,71.50
2018-03-26T04:28:00.651Z,71.50
2018-03-26T04:30:29.035Z,71.70
2018-03-26T04:32:57.417Z,71.50
2018-03-26T04:35:25.803Z,71.10
2018-03-26T04:37:54.257Z,71.20
2018-03-26T04:40:21.861Z,71.20
2018-03-26T04:42:49.500Z,71.30
2018-03-26T04:45:17.106Z,71.20
2018-03-26T04:47:44.865Z,70.30
2018-03-26T04:50:12.654Z,70.10
2018-03-26T04:52:40.240Z,70.20
2018-03-26T04:55:08.112Z,70.90
2018-03-26T04:57:35.928Z,71.10
2018-03-26T05:00:04.296Z,70.80
2018-03-26T05:02:32.020Z,70.80
2018-03-26T05:04:59.610Z,71.30
2018-03-26T05:07:27.227Z,71.50
2018-03-26T05:09:54.813Z,71.70
2018-03-26T05:12:22.466Z,71.90
2018-03-26T05:14:50.084Z,71.60
2018-03-26T05:17:17.685Z,71.40
2018-03-26T05:19:45.289Z,71.40
2018-03-26T05:22:12.885Z,71.40
2018-03-26T05:24:40.525Z,71.40
2018-03-26T05:27:08.247Z,71.70
2018-03-26T05:29:35.902Z,71.60
2018-03-26T05:32:04.293Z,71.30
2018-03-26T05:34:32.675Z,71.00
2018-03-26T05:37:01.053Z,71.30
2018-03-26T05:39:29.423Z,71.20
2018-03-26T05:41:57.058Z,71.20
2018-03-26T05:44:24.668Z,71.80
2018-03-26T05:46:53.141Z,71.10
2018-03-26T05:49:20.746Z,71.10
2018-03-26T05:51:48.356Z,71.20
2018-03-26T05:54:16.312Z,70.60
2018-03-26T05:56:43.927Z,70.60
2018-03-26T05:59:11.529Z,70.90
2018-03-26T06:01:39.154Z,71.60
2018-03-26T06:04:07.507Z,70.70
2018-03-26T06:06:35.146Z,70.60
2018-03-26T06:09:02.746Z,70.50
2018-03-26T06:11:31.899Z,71.30
2018-03-26T06:13:59.506Z,71.30
2018-03-26T06:16:27.114Z,71.10
2018-03-26T06:18:55.486Z,71.00
2018-03-26T06:21:23.855Z,71.40
2018-03-26T06:23:52.237Z,71.30
2018-03-26T06:26:19.830Z,71.10
2018-03-26T06:28:47.571Z,71.10
2018-03-26T06:31:15.971Z,71.10
2018-03-26T06:33:44.432Z,71.70
2018-03-26T06:36:31.730Z,72.50
2018-03-26T06:39:00.190Z,72.50
2018-03-26T06:41:27.788Z,72.20
2018-03-26T06:43:55.409Z,72.00
2018-03-26T06:46:22.999Z,71.80
2018-03-26T06:48:50.958Z,71.30
2018-03-26T06:51:18.822Z,71.20
2018-03-26T06:53:46.451Z,70.60
2018-03-26T06:56:14.848Z,70.80
2018-03-26T06:58:43.411Z,70.50
2018-03-26T07:01:11.060Z,70.40
2018-03-26T07:03:38.658Z,70.20
2018-03-26T07:06:07.033Z,70.00
2018-03-26T07:08:34.636Z,69.90
2018-03-26T07:11:02.266Z,69.50
2018-03-26T07:13:29.896Z,69.40
2018-03-26T07:15:57.490Z,68.50
2018-03-26T07:18:25.423Z,67.90
2018-03-26T07:20:54.776Z,67.70
2018-03-26T07:23:22.379Z,66.70
2018-03-26T07:25:50.030Z,66.10
2018-03-26T07:28:17.616Z,65.50
2018-03-26T07:30:45.247Z,65.30
2018-03-26T07:33:13.732Z,68.00
2018-03-26T07:35:42.353Z,68.50
2018-03-26T07:38:09.952Z,68.50
2018-03-26T07:40:37.575Z,68.90
2018-03-26T07:43:05.171Z,69.60
2018-03-26T07:45:32.788Z,69.60
2018-03-26T07:48:01.149Z,68.50
2018-03-26T07:50:28.770Z,68.50
2018-03-26T07:52:56.353Z,65.40
2018-03-26T07:55:23.943Z,64.80
2018-03-26T07:57:51.693Z,64.50
2018-03-26T08:00:19.305Z,63.50
2018-03-26T08:02:47.672Z,63.10
2018-03-26T08:05:15.272Z,63.10
2018-03-26T08:07:43.207Z,63.10
2018-03-26T08:10:10.800Z,62.80
2018-03-26T08:12:38.392Z,63.20
2018-03-26T08:15:06.005Z,62.50
2018-03-26T08:17:33.657Z,62.80
2018-03-26T08:20:02.794Z,62.40
2018-03-26T08:22:30.423Z,62.30
2018-03-26T08:24:58.020Z,62.20
2018-03-26T08:27:26.428Z,62.30
2018-03-26T08:29:54.120Z,62.30
2018-03-26T08:32:21.818Z,61.30
2018-03-26T08:34:49.423Z,62.00
2018-03-26T08:37:17.054Z,63.00
2018-03-26T08:39:46.091Z,63.50
2018-03-26T08:42:13.700Z,63.40
2018-03-26T08:44:41.315Z,61.40
2018-03-26T08:47:08.945Z,60.40
2018-03-26T08:49:36.573Z,60.20
2018-03-26T08:52:04.151Z,60.60
2018-03-26T08:54:31.891Z,60.80
2018-03-26T08:56:59.600Z,59.90
2018-03-26T08:59:27.196Z,58.80
2018-03-26T09:01:55.600Z,57.90
2018-03-26T09:04:23.216Z,57.90
2018-03-26T09:06:51.595Z,58.50
2018-03-26T09:09:19.203Z,58.10
2018-03-26T09:11:47.921Z,57.40
2018-03-26T09:14:15.511Z,57.40
2018-03-26T09:16:43.096Z,57.10
2018-03-26T09:19:10.720Z,57.60
2018-03-26T09:21:38.296Z,57.60
2018-03-26T09:24:05.907Z,58.10
2018-03-26T09:26:34.290Z,58.80
2018-03-26T09:29:02.712Z,58.60
2018-03-26T09:31:30.308Z,58.60
2018-03-26T09:33:57.910Z,60.30
2018-03-26T09:36:26.302Z,59.60
2018-03-26T09:38:53.926Z,59.60
2018-03-26T09:41:21.540Z,60.70
2018-03-26T09:43:49.142Z,59.10
2018-03-26T09:46:16.753Z,59.40
2018-03-26T09:48:45.117Z,59.30
2018-03-26T09:51:13.606Z,59.70
2018-03-26T09:53:41.225Z,59.70
2018-03-26T09:56:08.843Z,60.00
2018-03-26T09:58:37.264Z,58.30
2018-03-26T10:01:04.909Z,58.20
2018-03-26T10:03:33.351Z,58.50
2018-03-26T10:06:00.942Z,58.50
2018-03-26T10:08:28.613Z,58.90
2018-03-26T10:10:56.215Z,59.30
2018-03-26T10:13:23.789Z,59.50
2018-03-26T10:15:51.518Z,59.10
2018-03-26T10:18:19.885Z,60.00
2018-03-26T10:20:47.511Z,60.00
2018-03-26T10:23:15.108Z,60.30
2018-03-26T10:25:44.216Z,59.90
2018-03-26T10:28:11.931Z,60.00
2018-03-26T10:30:39.566Z,59.90
2018-03-26T10:33:07.936Z,59.60
2018-03-26T10:35:35.546Z,59.60
2018-03-26T10:38:03.180Z,60.50
2018-03-26T10:40:31.571Z,60.20
2018-03-26T10:42:59.954Z,60.30
2018-03-26T10:45:28.326Z,60.00
2018-03-26T10:47:56.697Z,59.50
2018-03-26T10:50:24.381Z,59.50
2018-03-26T10:52:52.757Z,58.70
2018-03-26T10:55:21.106Z,59.00
2018-03-26T10:57:48.701Z,59.00
2018-03-26T11:00:16.321Z,58.70
2018-03-26T11:02:43.938Z,59.60
2018-03-26T11:05:12.322Z,58.50
2018-03-26T11:07:40.694Z,58.20
2018-03-26T11:10:08.355Z,58.20
2018-03-26T11:12:35.940Z,58.70
2018-03-26T11:15:04.335Z,58.40
2018-03-26T11:17:32.783Z,57.10
2018-03-26T11:20:00.412Z,57.10
2018-03-26T11:22:28.052Z,57.30
2018-03-26T11:24:56.424Z,57.50
2018-03-26T11:27:24.862Z,56.50
2018-03-26T11:29:52.465Z,56.50
2018-03-26T11:32:20.074Z,56.10
2018-03-26T11:34:47.685Z,57.20
2018-03-26T11:37:15.312Z,55.40
2018-03-26T11:39:42.931Z,56.20
2018-03-26T11:42:11.326Z,54.80
2018-03-26T11:44:39.748Z,55.50
2018-03-26T11:47:07.356Z,55.50
2018-03-26T11:49:35.035Z,55.90
2018-03-26T11:52:02.748Z,54.70
2018-03-26T11:54:30.374Z,54.50
2018-03-26T11:56:58.739Z,52.10
2018-03-26T11:59:26.390Z,52.10
2018-03-26T12:01:55.757Z,52.20
2018-03-26T12:04:23.381Z,52.10
2018-03-26T12:06:51.869Z,53.10
2018-03-26T12:09:19.492Z,53.00
2018-03-26T12:11:47.083Z,52.80
2018-03-26T12:14:14.683Z,51.80
2018-03-26T12:16:43.045Z,50.50
2018-03-26T12:19:10.672Z,50.50
2018-03-26T12:21:38.359Z,49.50
2018-03-26T12:24:18.334Z,48.90
2018-03-26T12:26:46.700Z,46.70
2018-03-26T12:29:26.601Z,46.60
2018-03-26T12:31:54.216Z,46.90
2018-03-26T12:34:34.071Z,48.20
2018-03-26T12:37:02.494Z,47.20
2018-03-26T12:39:30.100Z,47.10
2018-03-26T12:41:57.716Z,48.40
2018-03-26T12:47:32.416Z,49.20
2018-03-26T12:50:00.786Z,49.70
2018-03-26T12:52:40.304Z,49.60
2018-03-26T12:55:07.897Z,50.40
2018-03-26T12:57:47.543Z,51.30
2018-03-26T13:00:15.147Z,50.40
2018-03-26T13:02:42.793Z,49.20
2018-03-26T13:05:11.165Z,50.00
2018-03-26T13:07:39.585Z,50.40
2018-03-26T13:10:07.177Z,50.40
2018-03-26T13:12:34.764Z,51.30
2018-03-26T13:15:03.193Z,51.30
2018-03-26T13:17:30.792Z,51.30
2018-03-26T13:19:58.434Z,51.80
2018-03-26T13:22:26.031Z,53.40
2018-03-26T13:24:53.893Z,55.30
2018-03-26T13:27:21.484Z,55.30
2018-03-26T13:29:49.077Z,55.10
2018-03-26T13:32:16.886Z,55.00
2018-03-26T13:34:44.497Z,56.70
2018-03-26T13:37:12.887Z,57.50
2018-03-26T13:39:41.263Z,58.30
2018-03-26T13:42:09.183Z,58.40
2018-03-26T13:44:36.790Z,58.40
2018-03-26T13:47:04.353Z,57.00
2018-03-26T13:49:31.994Z,57.40
2018-03-26T13:51:59.594Z,56.90
2018-03-26T13:54:27.198Z,56.20
2018-03-26T13:56:54.813Z,57.10
2018-03-26T13:59:22.438Z,57.70
2018-03-26T14:01:50.036Z,57.40
2018-03-26T14:04:19.188Z,58.30
2018-03-26T14:06:46.975Z,58.10
2018-03-26T14:09:26.477Z,57.60
2018-03-26T14:12:06.645Z,58.60
2018-03-26T14:14:45.941Z,58.40
2018-03-26T14:17:25.416Z,58.50
2018-03-26T14:19:53.107Z,58.90
2018-03-26T14:22:20.722Z,59.50
2018-03-26T14:24:48.335Z,59.70
2018-03-26T14:27:15.952Z,59.60
2018-03-26T14:29:43.547Z,59.50
2018-03-26T14:32:11.251Z,60.60
2018-03-26T14:34:38.850Z,60.80
2018-03-26T14:37:06.459Z,60.70
2018-03-26T14:39:34.141Z,61.40
2018-03-26T14:42:01.754Z,61.10
2018-03-26T14:44:30.133Z,61.40
2018-03-26T14:46:57.734Z,61.40
2018-03-26T14:49:25.381Z,61.90
2018-03-26T14:51:53.032Z,62.70
2018-03-26T14:54:21.517Z,61.60
2018-03-26T14:56:49.905Z,61.50
2018-03-26T14:59:18.288Z,63.00
2018-03-26T15:01:46.661Z,62.60
2018-03-26T15:04:15.048Z,63.70
2018-03-26T15:06:43.486Z,63.70
2018-03-26T15:09:11.105Z,63.60
2018-03-26T15:11:39.513Z,62.60
2018-03-26T15:14:07.211Z,62.60
2018-03-26T15:16:34.828Z,61.60
2018-03-26T15:19:02.454Z,62.00
2018-03-26T15:21:30.073Z,62.50
2018-03-26T15:23:57.927Z,63.90
2018-03-26T15:26:26.324Z,66.70
2018-03-26T15:28:53.953Z,66.60
2018-03-26T15:31:21.561Z,67.50
2018-03-26T15:33:49.139Z,68.20
2018-03-26T15:36:16.793Z,69.60
2018-03-26T15:38:44.400Z,69.30
2018-03-26T15:41:12.037Z,69.50
2018-03-26T15:43:39.665Z,70.80
2018-03-26T15:46:08.066Z,72.40
2018-03-26T15:48:36.477Z,72.60
2018-03-26T15:51:04.205Z,72.60
2018-03-26T15:53:32.606Z,73.00
2018-03-26T15:56:00.220Z,73.00
2018-03-26T15:58:27.865Z,74.40
2018-03-26T16:00:55.483Z,73.80
2018-03-26T16:03:24.376Z,74.90
2018-03-26T16:05:52.771Z,75.00
2018-03-26T16:08:21.208Z,76.00
2018-03-26T16:10:48.841Z,76.00
2018-03-26T16:13:16.461Z,76.50
2018-03-26T16:15:44.915Z,76.30
2018-03-26T16:18:12.547Z,76.40
2018-03-26T16:20:40.210Z,76.20
2018-03-26T16:23:07.831Z,76.40
2018-03-26T16:25:35.427Z,76.10
2018-03-26T16:28:03.847Z,76.50
2018-03-26T16:30:31.479Z,76.50
2018-03-26T16:32:59.886Z,76.90
2018-03-26T16:35:27.541Z,76.90
2018-03-26T16:37:55.975Z,76.80
2018-03-26T16:40:23.655Z,76.80
2018-03-26T16:42:53.915Z,76.40
2018-03-26T16:45:21.577Z,76.00
2018-03-26T16:47:49.940Z,75.80
2018-03-26T16:50:18.512Z,75.70
2018-03-26T16:52:46.162Z,75.80
2018-03-26T16:55:13.826Z,76.00
2018-03-26T16:57:41.425Z,75.60
2018-03-26T17:00:09.056Z,75.30
2018-03-26T17:02:36.746Z,75.10
2018-03-26T17:05:05.423Z,74.90
2018-03-26T17:07:33.110Z,74.90
2018-03-26T17:10:00.739Z,74.70
2018-03-26T17:12:28.372Z,74.50
2018-03-26T17:14:56.106Z,74.40
2018-03-26T17:17:23.724Z,74.50
2018-03-26T17:19:51.363Z,74.60
2018-03-26T17:22:19.763Z,75.40
2018-03-26T17:24:48.251Z,74.90
2018-03-26T17:27:16.714Z,75.20
2018-03-26T17:29:45.117Z,75.50
2018-03-26T17:32:13.649Z,75.20
2018-03-26T17:34:41.274Z,75.20
2018-03-26T17:37:09.691Z,75.60
2018-03-26T17:39:37.326Z,75.60
2018-03-26T17:42:04.959Z,75.50
2018-03-26T17:44:32.775Z,75.90
2018-03-26T17:47:00.422Z,76.60
2018-03-26T17:49:28.139Z,75.90
2018-03-26T17:51:56.571Z,76.00
2018-03-26T17:54:25.137Z,76.10
2018-03-26T17:56:52.801Z,76.10
2018-03-26T17:59:21.276Z,75.50
2018-03-26T18:01:49.025Z,75.40
2018-03-26T18:04:16.725Z,75.40
2018-03-26T18:06:44.431Z,75.30
2018-03-26T18:09:12.581Z,75.00
2018-03-26T18:11:41.261Z,75.00
2018-03-26T18:14:08.929Z,74.90
2018-03-26T18:16:36.595Z,75.80
2018-03-26T18:19:05.026Z,74.70
2018-03-26T18:21:33.293Z,74.70
2018-03-26T18:24:01.062Z,74.80
2018-03-26T18:26:28.864Z,74.10
2018-03-26T18:28:56.566Z,72.90
2018-03-26T18:31:24.325Z,72.40
2018-03-26T18:33:52.094Z,72.70
2018-03-26T18:36:20.110Z,72.60
2018-03-26T18:38:47.852Z,73.50
2018-03-26T18:41:16.354Z,76.20
2018-03-26T18:43:44.834Z,77.10
2018-03-26T18:46:13.326Z,77.60
2018-03-26T18:48:41.257Z,77.50
2018-03-26T18:51:10.525Z,78.80
2018-03-26T18:53:38.308Z,78.80
2018-03-26T18:56:06.281Z,79.00
2018-03-26T18:58:34.052Z,79.20
2018-03-26T19:01:01.950Z,79.50
2018-03-26T19:03:30.135Z,79.80
2018-03-26T19:05:59.413Z,78.70
2018-03-26T19:08:27.982Z,78.60
2018-03-26T19:10:55.870Z,78.80
2018-03-26T19:13:24.001Z,79.00
2018-03-26T19:15:51.912Z,79.90
2018-03-26T19:18:19.804Z,79.80
2018-03-26T19:20:48.263Z,80.60
2018-03-26T19:23:16.603Z,80.80
2018-03-26T19:25:47.828Z,81.10
2018-03-26T19:28:15.798Z,81.10
2018-03-26T19:30:43.657Z,81.00
2018-03-26T19:33:11.514Z,80.70
2018-03-26T19:35:40.071Z,80.20
2018-03-26T19:38:07.881Z,79.90
2018-03-26T19:40:36.219Z,79.80
2018-03-26T19:43:03.961Z,79.80
2018-03-26T19:45:31.701Z,80.40
2018-03-26T19:47:59.441Z,80.40
2018-03-26T19:50:27.066Z,79.90
2018-03-26T19:52:56.259Z,80.60
2018-03-26T19:55:23.904Z,80.50
2018-03-26T19:57:51.546Z,80.40
2018-03-26T20:00:20.804Z,80.90
2018-03-26T20:02:48.537Z,80.90
2018-03-26T20:05:16.520Z,80.50
2018-03-26T20:07:44.472Z,81.00
2018-03-26T20:10:12.142Z,81.70
2018-03-26T20:12:39.852Z,81.20
2018-03-26T20:15:07.541Z,81.50
2018-03-26T20:17:36.704Z,81.10
2018-03-26T20:20:04.383Z,81.00
2018-03-26T20:22:32.879Z,81.70
2018-03-26T20:25:00.638Z,81.70
2018-03-26T20:27:28.328Z,82.00
2018-03-26T20:29:56.846Z,82.00
2018-03-26T20:32:24.535Z,81.80
2018-03-26T20:34:52.250Z,81.90
2018-03-26T20:37:20.705Z,82.60
2018-03-26T20:39:48.489Z,82.60
2018-03-26T20:42:16.311Z,82.50
2018-03-26T20:44:43.973Z,82.50
2018-03-26T20:47:11.655Z,82.60
2018-03-26T20:49:39.323Z,83.10
2018-03-26T20:52:07.001Z,83.20
2018-03-26T20:54:35.021Z,82.80
2018-03-26T20:57:03.445Z,82.90
2018-03-26T20:59:31.474Z,82.90
2018-03-26T21:01:59.968Z,82.20
2018-03-26T21:04:28.488Z,82.50
2018-03-26T21:06:56.214Z,82.50
2018-03-26T21:09:24.609Z,83.10
2018-03-26T21:11:53.027Z,83.40
2018-03-26T21:14:20.655Z,83.40
2018-03-26T21:16:49.147Z,83.40
2018-03-26T21:19:17.547Z,83.40
2018-03-26T21:21:45.177Z,83.40
2018-03-26T21:24:13.571Z,83.20
2018-03-26T21:26:42.006Z,82.90
2018-03-26T21:29:09.812Z,82.90
2018-03-26T21:31:37.438Z,83.30
2018-03-26T21:34:05.035Z,83.10
2018-03-26T21:36:32.668Z,83.30
2018-03-26T21:39:00.290Z,83.10
2018-03-26T21:41:29.329Z,83.10
2018-03-26T21:43:56.947Z,83.70
2018-03-26T21:46:25.349Z,82.30
2018-03-26T21:48:53.713Z,82.10
2018-03-26T21:51:21.347Z,82.10
2018-03-26T21:53:49.077Z,82.50
2018-03-26T21:56:16.715Z,82.50
2018-03-26T21:58:45.115Z,82.30
2018-03-26T22:01:14.351Z,81.90
2018-03-26T22:03:41.969Z,81.90
2018-03-26T22:06:09.581Z,81.50
2018-03-26T22:08:37.212Z,81.40
2018-03-26T22:11:05.781Z,81.60
2018-03-26T22:13:33.382Z,81.60
2018-03-26T22:16:00.994Z,82.40
2018-03-26T22:18:28.582Z,81.80
2018-03-26T22:20:56.191Z,82.00
2018-03-26T22:23:23.783Z,82.40
2018-03-26T22:25:51.398Z,82.10
2018-03-26T22:28:19.790Z,81.80
2018-03-26T22:30:47.474Z,81.80
2018-03-26T22:33:15.086Z,82.00
2018-03-26T22:35:42.663Z,81.70
2018-03-26T22:38:11.045Z,82.10
2018-03-26T22:40:38.674Z,82.10
2018-03-26T22:43:06.522Z,82.20
2018-03-26T22:45:34.134Z,82.20
2018-03-26T22:48:01.745Z,82.30
2018-03-26T22:50:29.329Z,82.60
2018-03-26T22:52:57.156Z,83.10
2018-03-26T22:55:25.569Z,83.10
2018-03-26T22:57:53.243Z,83.10
2018-03-26T23:00:21.523Z,82.80
2018-03-26T23:02:49.140Z,82.70
2018-03-26T23:05:16.806Z,82.80
2018-03-26T23:07:45.188Z,82.80
2018-03-26T23:10:13.584Z,82.90
2018-03-26T23:12:41.995Z,83.60
2018-03-26T23:15:09.782Z,82.90
2018-03-26T23:17:37.395Z,83.30
2018-03-26T23:20:04.984Z,83.40
2018-03-26T23:22:45.296Z,83.50
2018-03-26T23:25:12.908Z,83.50
2018-03-26T23:27:41.324Z,83.60
2018-03-26T23:30:08.995Z,83.60
2018-03-26T23:32:36.637Z,83.70
2018-03-26T23:35:04.260Z,83.80
2018-03-26T23:37:33.361Z,84.20
2018-03-26T23:40:01.747Z,84.10
2018-03-26T23:42:30.137Z,83.90
2018-03-26T23:44:58.870Z,84.00
2018-03-26T23:47:26.529Z,84.00
2018-03-26T23:49:54.139Z,83.90
2018-03-26T23:52:21.764Z,83.90
2018-03-26T23:54:49.393Z,83.90
2018-03-26T23:57:17.770Z,83.80
2018-03-26T23:59:46.139Z,83.70
